Terminal Aerodrome Forecast
Issued by NWS

Home | Current Version | Previous Version | Graphics & Text | Print | Product List | Glossary On
Versions: 1 2 3 4 5 6 7 8 9 10 11 12 13
000
FTUS41 KCLE 242300
TAFFDY
TAF
KFDY 242330Z 2500/2524 29007KT P6SM OVC250
     FM250100 09005KT P6SM OVC070
     FM250600 08009KT P6SM -RA OVC050
     FM250800 08012KT P6SM -RA OVC050
     FM251500 10015G25KT P6SM -RA OVC050
     FM251800 10015G25KT 4SM -RA BR OVC015=

USA.gov is the U.S. government's official web portal to all federal, state and local government web resources and services.